createdAt,value
2022-11-04T00:07:31.709Z,41.90
2022-11-04T00:17:33.297Z,43.85
2022-11-04T00:27:55.746Z,47.00
2022-11-04T00:37:57.478Z,42.42
2022-11-04T00:48:00.116Z,46.08
2022-11-04T00:58:01.997Z,44.73
2022-11-04T01:08:03.877Z,50.15
2022-11-04T01:18:06.290Z,57.78
2022-11-04T01:28:08.465Z,54.80
2022-11-04T01:38:11.311Z,58.08
2022-11-04T01:48:22.243Z,53.75
2022-11-04T01:58:28.947Z,58.05
2022-11-04T02:08:31.991Z,62.35
2022-11-04T02:18:44.668Z,52.20
2022-11-04T02:29:05.208Z,60.60
2022-11-04T02:39:23.063Z,59.50
2022-11-04T02:49:33.425Z,59.95
2022-11-04T02:59:56.595Z,64.07
2022-11-04T03:10:04.800Z,65.07
2022-11-04T03:20:12.319Z,63.83
2022-11-04T03:30:19.960Z,60.22
2022-11-04T03:40:22.783Z,58.80
2022-11-04T03:50:28.927Z,59.07
2022-11-04T04:00:39.192Z,60.22
2022-11-04T04:11:03.133Z,57.75
2022-11-04T04:21:09.538Z,63.22
2022-11-04T04:31:34.666Z,73.25
2022-11-04T04:41:54.914Z,77.95
2022-11-04T04:51:57.822Z,70.05
2022-11-04T05:01:59.747Z,62.53
2022-11-04T05:12:01.618Z,65.78
2022-11-04T05:22:04.722Z,63.97
2022-11-04T05:32:06.820Z,59.25
2022-11-04T05:42:11.784Z,60.97
2022-11-04T05:52:13.568Z,60.20
2022-11-04T06:02:20.535Z,72.00
2022-11-04T06:12:23.512Z,65.80
2022-11-04T06:22:25.232Z,64.43
2022-11-04T06:32:26.924Z,63.78
2022-11-04T06:42:28.967Z,66.40
2022-11-04T06:52:42.105Z,63.47
2022-11-04T07:02:49.290Z,63.47
2022-11-04T07:12:50.958Z,53.50
2022-11-04T07:22:55.584Z,60.20
2022-11-04T07:32:57.346Z,58.45
2022-11-04T07:43:01.314Z,55.22
2022-11-04T07:53:03.042Z,52.75
2022-11-04T08:03:04.771Z,57.13
2022-11-04T08:13:07.991Z,56.28
2022-11-04T08:33:15.557Z,58.63
2022-11-04T08:43:17.388Z,57.53
2022-11-04T08:53:19.530Z,57.08
2022-11-04T09:03:23.228Z,54.92
2022-11-04T09:13:25.006Z,62.95
2022-11-04T09:23:31.258Z,56.53
2022-11-04T09:33:33.424Z,65.05
2022-11-04T09:44:13.979Z,67.50
2022-11-04T09:54:47.303Z,66.75
2022-11-04T10:05:05.280Z,66.10
2022-11-04T10:15:28.222Z,68.65
2022-11-04T10:25:47.203Z,72.43
2022-11-04T10:35:57.692Z,75.65
2022-11-04T10:46:28.999Z,73.68
2022-11-04T10:56:34.156Z,75.30
2022-11-04T11:06:38.664Z,71.97
2022-11-04T11:16:45.743Z,72.85
2022-11-04T11:26:52.343Z,80.85
2022-11-04T11:36:57.902Z,69.30
2022-11-04T11:47:03.108Z,77.80
2022-11-04T11:57:25.655Z,73.50
2022-11-04T12:18:30.909Z,74.25
2022-11-04T12:28:57.159Z,76.65
2022-11-04T12:39:35.083Z,72.10
2022-11-04T12:49:49.191Z,68.80
2022-11-04T13:00:10.644Z,60.53
2022-11-04T13:10:28.937Z,66.40
2022-11-04T13:20:50.594Z,59.45
2022-11-04T13:31:08.075Z,67.88
2022-11-04T13:41:47.491Z,63.63
2022-11-04T13:52:01.102Z,49.50
2022-11-04T14:02:12.814Z,52.13
2022-11-04T14:12:30.310Z,50.17
2022-11-04T14:22:39.110Z,50.70
2022-11-04T14:32:41.950Z,55.28
2022-11-04T14:42:51.850Z,60.15
2022-11-04T14:53:00.882Z,60.75
2022-11-04T15:03:57.497Z,56.92
2022-11-04T15:13:50.079Z,59.25
2022-11-04T15:23:57.673Z,54.83
2022-11-04T15:34:02.272Z,62.40
2022-11-04T15:44:04.410Z,58.85
2022-11-04T15:54:30.635Z,66.47
2022-11-04T16:04:35.520Z,62.47
2022-11-04T16:14:38.274Z,65.63
2022-11-04T16:24:41.687Z,82.18
2022-11-04T16:34:50.779Z,81.70
2022-11-04T16:45:02.630Z,78.93
2022-11-04T16:55:05.596Z,80.40
2022-11-04T17:05:08.815Z,82.22
2022-11-04T17:15:12.948Z,76.85
2022-11-04T17:25:23.949Z,86.75
2022-11-04T17:35:27.654Z,79.93
2022-11-04T17:45:30.734Z,80.65
2022-11-04T17:55:46.793Z,84.38
2022-11-04T18:06:03.038Z,83.88
2022-11-04T18:16:12.897Z,71.90
2022-11-04T18:26:14.615Z,85.28
2022-11-04T18:36:16.760Z,83.60
2022-11-04T18:46:20.006Z,95.13
2022-11-04T18:56:23.405Z,82.80
2022-11-04T19:06:30.998Z,79.00
2022-11-04T19:16:41.883Z,68.40
2022-11-04T19:26:43.995Z,72.20
2022-11-04T19:36:46.063Z,72.82
2022-11-04T19:46:50.884Z,72.95
2022-11-04T19:56:56.297Z,88.20
2022-11-04T20:06:58.296Z,78.20
2022-11-04T20:17:00.363Z,76.68
2022-11-04T20:27:02.367Z,72.72
2022-11-04T20:37:04.164Z,82.60
2022-11-04T20:47:06.995Z,78.28
2022-11-04T20:57:08.664Z,82.50
2022-11-04T21:07:11.076Z,82.88
2022-11-04T21:17:13.508Z,83.13
2022-11-04T21:27:15.159Z,86.83
2022-11-04T21:37:26.026Z,74.32
2022-11-04T21:47:27.992Z,82.70
2022-11-04T21:57:30.733Z,75.82
2022-11-04T22:07:51.011Z,94.77
2022-11-04T22:17:52.780Z,105.47
2022-11-04T22:27:56.754Z,108.13
2022-11-04T22:38:01.854Z,105.40
2022-11-04T22:48:07.007Z,82.45
2022-11-04T22:58:13.743Z,70.38
2022-11-04T23:08:24.892Z,58.58
2022-11-04T23:18:43.520Z,51.45
2022-11-04T23:29:04.820Z,32.97
2022-11-04T23:39:07.537Z,29.45
2022-11-04T23:49:31.008Z,27.53
2022-11-04T23:59:57.071Z,18.58
